Time;durP1;ratioP1;P1;durP2;ratioP2;P2;SDS_P1;SDS_P2;PMS_P1;PMS_P2;Temp;Humidity;BMP_temperature;BMP_pressure;BME280_temperature;BME280_humidity;BME280_pressure;Samples;Min_cycle;Max_cycle;Signal;HPM_P1;HPM_P2
2022/04/14 00:00:10;;;;;;;12.80;10.82;;;13.60;99.90;;;;;;7330222;19;112003;-84
2022/04/14 00:02:37;;;;;;;11.23;10.02;;;13.50;99.90;;;;;;7330732;19;115455;-84
2022/04/14 00:05:05;;;;;;;13.32;11.93;;;13.50;99.90;;;;;;7331411;19;110675;-84
2022/04/14 00:07:32;;;;;;;19.08;13.70;;;13.50;99.90;;;;;;7333157;19;111544;-85
2022/04/14 00:10:00;;;;;;;14.88;13.27;;;13.50;99.90;;;;;;7333169;19;112038;-85
2022/04/14 00:12:27;;;;;;;15.93;14.23;;;13.40;99.90;;;;;;7333586;19;110385;-85
2022/04/14 00:14:54;;;;;;;16.08;14.20;;;13.40;99.90;;;;;;7337243;19;112662;-84
2022/04/14 00:17:22;;;;;;;16.00;13.05;;;13.40;99.90;;;;;;7334295;19;110651;-84
2022/04/14 00:19:49;;;;;;;15.18;13.52;;;13.30;99.90;;;;;;7332913;19;110809;-84
2022/04/14 00:22:16;;;;;;;15.55;13.57;;;13.30;99.90;;;;;;7332805;19;111806;-84
2022/04/14 00:24:43;;;;;;;16.42;13.18;;;13.30;99.90;;;;;;7331071;19;110036;-84
2022/04/14 00:27:16;;;;;;;14.30;12.35;;;13.30;99.90;;;;;;7332329;19;111423;-85
2022/04/14 00:29:43;;;;;;;15.00;13.25;;;13.30;99.90;;;;;;7333190;19;111821;-84
2022/04/14 00:32:11;;;;;;;14.55;13.05;;;13.30;99.90;;;;;;7332946;19;110472;-84
2022/04/14 00:34:38;;;;;;;14.30;12.90;;;13.20;99.90;;;;;;7332058;19;111938;-84
2022/04/14 00:37:05;;;;;;;12.55;11.35;;;13.20;99.90;;;;;;7338838;19;111430;-84
2022/04/14 00:39:32;;;;;;;11.32;10.32;;;13.20;99.90;;;;;;7332134;19;111548;-83
2022/04/14 00:41:59;;;;;;;11.63;10.52;;;13.20;99.90;;;;;;7333567;19;114355;-85
2022/04/14 00:44:26;;;;;;;11.85;10.70;;;13.20;99.90;;;;;;7331726;19;110382;-84
2022/04/14 00:46:53;;;;;;;11.30;10.20;;;13.10;99.90;;;;;;7330971;19;111309;-83
2022/04/14 00:49:20;;;;;;;10.25;9.45;;;13.20;99.90;;;;;;7331650;19;112472;-84
2022/04/14 00:51:48;;;;;;;8.98;8.23;;;13.10;99.90;;;;;;7335693;19;108054;-84
2022/04/14 00:54:15;;;;;;;8.20;7.60;;;13.10;99.90;;;;;;7332059;19;107834;-84
2022/04/14 00:56:42;;;;;;;8.75;7.95;;;13.00;99.90;;;;;;7339676;19;108222;-85
2022/04/14 00:59:09;;;;;;;8.25;7.47;;;13.00;99.90;;;;;;7331814;19;107715;-83
2022/04/14 01:01:37;;;;;;;8.20;7.60;;;13.00;99.90;;;;;;7331417;19;108195;-86
2022/04/14 01:04:04;;;;;;;6.97;6.38;;;13.00;99.90;;;;;;7335923;19;109595;-85
2022/04/14 01:06:32;;;;;;;7.05;6.45;;;12.90;99.90;;;;;;7333843;19;110496;-85
2022/04/14 01:11:50;;;;;;;9.77;8.88;;;12.90;99.90;;;;;;7336194;19;109300;-86
2022/04/14 01:14:26;;;;;;;10.07;9.18;;;12.90;99.90;;;;;;7336701;19;108491;-84
2022/04/14 01:16:54;;;;;;;9.88;8.98;;;12.90;99.90;;;;;;7334802;19;111011;-84
2022/04/14 01:19:22;;;;;;;10.07;9.25;;;12.90;99.90;;;;;;7337179;19;109729;-84
2022/04/14 01:22:30;;;;;;;12.70;9.68;;;12.90;99.90;;;;;;7334232;19;107456;-85
2022/04/14 01:24:58;;;;;;;10.13;9.18;;;12.80;99.90;;;;;;7332569;19;108028;-84
2022/04/14 01:27:26;;;;;;;10.60;9.60;;;12.80;99.90;;;;;;7334334;19;110895;-84
2022/04/14 01:29:53;;;;;;;11.20;10.10;;;12.70;99.90;;;;;;7334979;19;108524;-84
2022/04/14 01:32:21;;;;;;;11.30;10.27;;;12.70;99.90;;;;;;7329346;19;110267;-84
2022/04/14 01:34:52;;;;;;;14.63;11.95;;;12.70;99.90;;;;;;7329746;19;114448;-85
2022/04/14 01:37:19;;;;;;;13.90;11.07;;;12.70;99.90;;;;;;7330691;19;112090;-85
2022/04/14 01:39:46;;;;;;;11.63;10.52;;;12.70;99.90;;;;;;7330408;19;111449;-85
2022/04/14 01:42:13;;;;;;;12.00;10.85;;;12.60;99.90;;;;;;7335415;19;111855;-84
2022/04/14 01:44:40;;;;;;;12.25;10.23;;;12.60;99.90;;;;;;7330823;19;110081;-85
2022/04/14 01:47:07;;;;;;;15.27;13.18;;;12.60;99.90;;;;;;7330212;19;111766;-85
2022/04/14 01:49:34;;;;;;;14.15;11.98;;;12.60;99.90;;;;;;7331431;19;113256;-84
2022/04/14 01:52:05;;;;;;;17.63;14.43;;;12.60;99.90;;;;;;7332124;19;109863;-85
2022/04/14 01:54:32;;;;;;;15.32;13.40;;;12.60;99.90;;;;;;7330306;19;111682;-85
2022/04/14 01:56:59;;;;;;;15.38;13.20;;;12.50;99.90;;;;;;7329602;19;112241;-84
2022/04/14 01:59:26;;;;;;;15.75;13.57;;;12.60;99.90;;;;;;7330215;19;111213;-85
2022/04/14 02:01:53;;;;;;;15.32;12.85;;;12.60;99.90;;;;;;7327335;19;111622;-85
2022/04/14 02:04:20;;;;;;;56.33;17.50;;;12.50;99.90;;;;;;7333435;19;113119;-85
2022/04/14 02:06:47;;;;;;;38.13;17.35;;;12.50;99.90;;;;;;7329199;19;110678;-85
2022/04/14 02:09:14;;;;;;;18.23;15.80;;;12.40;99.90;;;;;;7331059;19;112017;-85
2022/04/14 02:11:41;;;;;;;18.45;15.55;;;12.40;99.90;;;;;;7331480;19;111540;-84
2022/04/14 02:14:08;;;;;;;22.35;15.93;;;12.40;99.90;;;;;;7336655;19;111796;-85
2022/04/14 02:16:35;;;;;;;28.67;17.98;;;12.40;99.90;;;;;;7335950;19;111894;-86
2022/04/14 02:19:03;;;;;;;24.67;17.02;;;12.40;99.90;;;;;;7337225;19;111685;-84
2022/04/14 02:21:30;;;;;;;22.77;15.32;;;12.40;99.90;;;;;;7330682;19;111412;-85
2022/04/14 02:23:57;;;;;;;20.95;15.63;;;12.30;99.90;;;;;;7337927;19;112427;-85
2022/04/14 02:26:24;;;;;;;19.15;15.32;;;12.30;99.90;;;;;;7342501;19;112336;-84
2022/04/14 02:28:51;;;;;;;16.70;15.00;;;12.30;99.90;;;;;;7333809;19;114180;-85
2022/04/14 02:31:18;;;;;;;18.63;16.70;;;12.30;99.90;;;;;;7337253;19;112333;-85
2022/04/14 02:33:45;;;;;;;21.77;15.80;;;12.30;99.90;;;;;;7337772;19;111959;-85
2022/04/14 02:36:12;;;;;;;19.55;14.05;;;12.30;99.90;;;;;;7332640;19;111515;-85
2022/04/14 02:38:43;;;;;;;15.40;12.43;;;12.20;99.90;;;;;;7331070;19;111328;-86
2022/04/14 02:41:10;;;;;;;18.58;12.88;;;12.20;99.90;;;;;;7334158;19;114641;-84
2022/04/14 02:43:38;;;;;;;14.52;13.02;;;12.10;99.90;;;;;;7333237;19;111848;-85
2022/04/14 02:46:05;;;;;;;15.10;13.45;;;12.10;99.90;;;;;;7335596;19;111084;-84
2022/04/14 02:48:32;;;;;;;14.25;12.85;;;12.10;99.90;;;;;;7339347;19;110796;-85
2022/04/14 02:50:59;;;;;;;14.98;13.23;;;12.10;99.90;;;;;;7335298;19;110465;-85
2022/04/14 02:53:27;;;;;;;14.07;12.82;;;12.10;99.90;;;;;;7335192;19;110805;-85
2022/04/14 02:55:54;;;;;;;12.35;11.05;;;12.00;99.90;;;;;;7335390;19;111952;-84
2022/04/14 02:58:21;;;;;;;13.20;11.98;;;12.00;99.90;;;;;;7337130;19;110647;-85
2022/04/14 03:00:49;;;;;;;15.45;13.75;;;12.00;99.90;;;;;;7334799;19;111616;-85
2022/04/14 03:03:17;;;;;;;15.25;13.65;;;12.00;99.90;;;;;;7334114;19;110864;-85
2022/04/14 03:05:44;;;;;;;15.27;13.80;;;12.00;99.90;;;;;;7334709;19;109995;-84
2022/04/14 03:08:11;;;;;;;13.55;12.35;;;12.00;99.90;;;;;;7339503;19;111017;-86
2022/04/14 03:10:38;;;;;;;15.05;13.55;;;12.00;99.90;;;;;;7335266;19;111393;-85
2022/04/14 03:13:05;;;;;;;17.02;13.40;;;11.90;99.90;;;;;;7334071;19;111492;-85
2022/04/14 03:15:33;;;;;;;17.42;14.90;;;11.90;99.90;;;;;;7331605;19;112552;-84
2022/04/14 03:18:00;;;;;;;20.90;16.50;;;11.90;99.90;;;;;;7332818;19;112088;-85
2022/04/14 03:20:27;;;;;;;22.48;17.42;;;11.90;99.90;;;;;;7333801;19;111931;-85
2022/04/14 03:22:55;;;;;;;25.05;18.15;;;11.90;99.90;;;;;;7335039;19;111852;-85
2022/04/14 03:25:22;;;;;;;22.38;17.38;;;11.90;99.90;;;;;;7335443;19;110381;-85
2022/04/14 03:27:50;;;;;;;23.45;16.92;;;11.80;99.90;;;;;;7333351;19;111616;-85
2022/04/14 03:30:17;;;;;;;19.52;16.35;;;11.80;99.90;;;;;;7340250;19;111926;-85
2022/04/14 03:32:45;;;;;;;19.17;16.23;;;11.80;99.90;;;;;;7333478;19;112184;-85
2022/04/14 03:35:14;;;;;;;20.33;15.35;;;11.80;99.90;;;;;;7334259;19;110985;-84
2022/04/14 03:37:42;;;;;;;16.50;14.70;;;11.80;99.90;;;;;;7334989;19;110437;-85
2022/04/14 03:40:10;;;;;;;18.13;14.15;;;11.70;99.90;;;;;;7332784;19;111039;-85
2022/04/14 03:42:38;;;;;;;20.30;15.65;;;11.70;99.90;;;;;;7332892;19;111731;-85
2022/04/14 03:45:06;;;;;;;16.63;14.32;;;11.70;99.90;;;;;;7334179;19;110699;-85
2022/04/14 03:47:34;;;;;;;16.10;14.40;;;11.70;99.90;;;;;;7332138;19;111834;-85
2022/04/14 03:50:02;;;;;;;16.67;14.93;;;11.70;99.90;;;;;;7333729;19;112732;-86
2022/04/14 03:52:29;;;;;;;19.42;15.35;;;11.70;99.90;;;;;;7339943;19;111589;-85
2022/04/14 03:54:57;;;;;;;20.17;16.63;;;11.70;99.90;;;;;;7329694;19;116715;-85
2022/04/14 03:57:25;;;;;;;16.42;14.70;;;11.60;99.90;;;;;;7334036;19;110321;-84
2022/04/14 03:59:52;;;;;;;19.10;15.20;;;11.60;99.90;;;;;;7332437;19;111805;-85
2022/04/14 04:02:19;;;;;;;117.88;15.90;;;11.60;99.90;;;;;;7329265;19;111340;-84
2022/04/14 04:04:46;;;;;;;329.85;19.05;;;11.50;99.90;;;;;;7333164;19;110308;-85
2022/04/14 04:07:13;;;;;;;54.92;15.10;;;11.50;99.90;;;;;;7334020;19;111315;-84
2022/04/14 04:09:40;;;;;;;15.23;13.82;;;11.40;99.90;;;;;;7331717;19;112144;-84
2022/04/14 04:12:08;;;;;;;14.90;13.45;;;11.40;99.90;;;;;;7331536;19;110679;-85
2022/04/14 04:14:35;;;;;;;14.55;13.25;;;11.40;99.90;;;;;;7340154;19;111817;-84
2022/04/14 04:17:04;;;;;;;14.48;13.18;;;11.40;99.90;;;;;;7334171;19;110445;-84
2022/04/14 04:19:32;;;;;;;14.27;13.00;;;11.50;99.90;;;;;;7334262;19;114271;-84
2022/04/14 04:21:59;;;;;;;13.65;12.55;;;11.50;99.90;;;;;;7331246;19;111748;-85
2022/04/14 04:24:26;;;;;;;14.52;13.27;;;11.40;99.90;;;;;;7332111;19;110365;-85
2022/04/14 04:26:53;;;;;;;13.45;12.35;;;11.40;99.90;;;;;;7331586;19;113344;-84
2022/04/14 04:29:20;;;;;;;16.33;13.00;;;11.50;99.90;;;;;;7330415;19;113040;-84
2022/04/14 04:31:47;;;;;;;14.10;12.90;;;11.50;99.90;;;;;;7332986;19;110942;-85
2022/04/14 04:34:15;;;;;;;13.70;12.45;;;11.40;99.90;;;;;;7331044;19;111563;-85
2022/04/14 04:36:42;;;;;;;13.48;12.30;;;11.40;99.90;;;;;;7337271;19;111080;-84
2022/04/14 04:39:09;;;;;;;14.75;13.48;;;11.40;99.90;;;;;;7334283;19;111413;-84
2022/04/14 04:41:36;;;;;;;13.52;12.43;;;11.50;99.90;;;;;;7329646;19;111013;-85
2022/04/14 04:44:04;;;;;;;13.65;12.48;;;11.50;99.90;;;;;;7333230;19;110540;-85
2022/04/14 04:46:32;;;;;;;14.88;13.38;;;11.40;99.90;;;;;;7333282;19;113107;-85
2022/04/14 04:48:59;;;;;;;14.93;13.52;;;11.40;99.90;;;;;;7331126;19;111723;-84
2022/04/14 04:51:26;;;;;;;60.53;15.02;;;11.40;99.90;;;;;;7332734;19;110288;-84
2022/04/14 04:53:53;;;;;;;22.67;13.32;;;11.40;99.90;;;;;;7332482;19;112604;-84
2022/04/14 04:56:20;;;;;;;15.27;13.77;;;11.40;99.90;;;;;;7333315;19;112392;-85
2022/04/14 04:58:47;;;;;;;19.58;14.25;;;11.30;99.90;;;;;;7330646;19;112274;-85
2022/04/14 05:01:14;;;;;;;198.93;16.83;;;11.30;99.90;;;;;;7328155;19;114397;-84
2022/04/14 05:03:41;;;;;;;91.80;14.85;;;11.30;99.90;;;;;;7332322;19;110278;-84
2022/04/14 05:06:09;;;;;;;32.38;12.95;;;11.20;99.90;;;;;;7331063;19;111759;-85
2022/04/14 05:08:35;;;;;;;;;;;11.20;99.90;;;;;;7331100;19;112136;-85
2022/04/14 05:11:07;;;;;;;32.20;12.32;;;11.10;99.90;;;;;;7337206;19;109245;-85
2022/04/14 05:13:34;;;;;;;12.70;11.70;;;11.10;99.90;;;;;;7331945;19;110105;-86
2022/04/14 05:16:03;;;;;;;34.05;12.48;;;11.10;99.90;;;;;;7329922;19;111809;-85
2022/04/14 05:18:30;;;;;;;71.07;13.35;;;11.10;99.90;;;;;;7336693;19;111032;-85
2022/04/14 05:20:57;;;;;;;76.72;13.60;;;11.00;99.90;;;;;;7329247;19;111053;-83
2022/04/14 05:23:24;;;;;;;12.30;11.23;;;10.80;99.90;;;;;;7330885;19;111837;-85
2022/04/14 05:25:51;;;;;;;13.82;11.20;;;10.70;99.90;;;;;;7331331;19;111898;-85
2022/04/14 05:28:18;;;;;;;13.15;11.98;;;10.70;99.90;;;;;;7329129;19;111639;-85
2022/04/14 05:30:45;;;;;;;13.52;12.32;;;10.80;99.90;;;;;;7329982;19;110643;-84
2022/04/14 05:33:13;;;;;;;12.88;11.80;;;10.90;99.90;;;;;;7329780;19;111244;-84
2022/04/14 05:35:41;;;;;;;22.20;17.02;;;11.00;99.90;;;;;;7330290;19;111440;-85
2022/04/14 05:38:08;;;;;;;16.40;14.75;;;10.90;99.90;;;;;;7331521;19;111914;-85
2022/04/14 05:40:40;;;;;;;15.85;14.40;;;10.90;99.90;;;;;;7337686;19;111670;-85
2022/04/14 05:43:18;;;;;;;14.50;13.27;;;11.00;99.90;;;;;;7330818;19;111957;-84
2022/04/14 05:45:47;;;;;;;;;;;11.00;99.90;;;;;;7333288;19;110893;-85
2022/04/14 05:48:15;;;;;;;13.52;12.40;;;11.00;99.90;;;;;;7346162;19;107941;-85
2022/04/14 05:50:46;;;;;;;12.85;11.77;;;11.00;99.90;;;;;;7336141;19;110340;-85
2022/04/14 05:53:14;;;;;;;74.65;14.35;;;11.10;99.90;;;;;;7339488;19;110526;-85
2022/04/14 05:55:41;;;;;;;49.35;14.10;;;11.00;99.90;;;;;;7331230;19;112092;-84
2022/04/14 05:58:09;;;;;;;14.98;13.57;;;10.90;99.90;;;;;;7333773;19;110184;-85
2022/04/14 06:00:36;;;;;;;14.77;13.43;;;10.80;99.90;;;;;;7334234;19;113073;-85
2022/04/14 06:03:03;;;;;;;14.90;13.43;;;10.90;99.90;;;;;;7339984;19;111262;-85
2022/04/14 06:05:33;;;;;;;14.13;12.93;;;11.00;99.90;;;;;;7333471;19;111494;-85
2022/04/14 06:08:00;;;;;;;17.60;15.77;;;11.10;99.90;;;;;;7333775;19;112064;-85
2022/04/14 06:10:28;;;;;;;18.52;16.73;;;11.10;99.90;;;;;;7334157;19;110629;-85
2022/04/14 06:12:56;;;;;;;19.30;17.40;;;11.20;99.90;;;;;;7334595;19;111542;-86
2022/04/14 06:15:26;;;;;;;19.17;17.17;;;11.30;99.90;;;;;;7332505;19;112486;-87
2022/04/14 06:17:53;;;;;;;30.30;18.00;;;11.30;99.90;;;;;;7334331;19;112024;-85
2022/04/14 06:20:21;;;;;;;19.20;17.27;;;11.40;99.90;;;;;;7336654;19;111654;-86
2022/04/14 06:22:48;;;;;;;22.60;19.00;;;11.40;99.90;;;;;;7330385;19;110731;-87
2022/04/14 06:25:22;;;;;;;26.13;21.73;;;11.40;99.90;;;;;;7337909;19;110569;-85
2022/04/14 06:27:51;;;;;;;21.02;18.80;;;11.50;99.90;;;;;;7333392;19;112709;-85
2022/04/14 06:30:19;;;;;;;23.65;21.15;;;11.60;99.90;;;;;;7328925;19;110339;-86
2022/04/14 06:33:02;;;;;;;28.25;23.40;;;11.60;99.90;;;;;;7334471;19;112040;-86
2022/04/14 06:35:32;;;;;;;22.17;19.77;;;11.70;99.90;;;;;;7335779;19;112008;-86
2022/04/14 06:37:59;;;;;;;21.40;18.95;;;11.70;99.90;;;;;;7335376;19;110168;-86
2022/04/14 06:40:26;;;;;;;20.15;17.95;;;11.80;99.90;;;;;;7335653;19;111776;-86
2022/04/14 06:43:00;;;;;;;20.38;18.27;;;11.80;99.90;;;;;;7331310;19;111210;-86
2022/04/14 06:45:29;;;;;;;21.40;19.23;;;11.90;99.90;;;;;;7336207;19;111081;-85
2022/04/14 06:47:57;;;;;;;23.80;20.35;;;11.90;99.90;;;;;;7340889;19;111796;-85
2022/04/14 06:50:24;;;;;;;21.98;19.05;;;12.00;99.90;;;;;;7334897;19;110027;-86
2022/04/14 06:52:52;;;;;;;26.58;20.48;;;12.00;99.90;;;;;;7338871;19;113091;-85
2022/04/14 06:55:23;;;;;;;26.40;20.05;;;12.10;99.90;;;;;;7334002;19;111084;-85
2022/04/14 06:57:50;;;;;;;33.15;24.60;;;12.20;99.90;;;;;;7330702;19;111764;-86
2022/04/14 07:00:18;;;;;;;32.42;22.73;;;12.20;99.90;;;;;;7335220;19;110777;-85
2022/04/14 07:02:50;;;;;;;39.40;25.58;;;12.30;99.90;;;;;;7334550;19;111620;-84
2022/04/14 07:05:18;;;;;;;38.85;26.63;;;12.40;99.90;;;;;;7337261;19;110748;-84
2022/04/14 07:07:45;;;;;;;38.50;26.25;;;12.50;99.90;;;;;;7339258;19;114714;-85
2022/04/14 07:10:13;;;;;;;38.95;27.25;;;12.50;99.90;;;;;;7335495;19;110161;-85
2022/04/14 07:12:49;;;;;;;50.75;31.17;;;12.60;99.90;;;;;;7333738;19;111311;-85
2022/04/14 07:15:16;;;;;;;51.22;32.33;;;12.60;99.90;;;;;;7333722;19;111765;-86
2022/04/14 07:17:44;;;;;;;54.80;32.67;;;12.80;99.90;;;;;;7334018;19;110228;-85
2022/04/14 07:20:11;;;;;;;45.28;29.73;;;12.90;99.90;;;;;;7335126;19;112363;-85
2022/04/14 07:22:46;;;;;;;53.45;34.47;;;13.00;99.90;;;;;;7335149;19;111105;-86
2022/04/14 07:25:21;;;;;;;48.05;31.17;;;13.10;99.90;;;;;;7335549;19;110906;-86
2022/04/14 07:27:48;;;;;;;59.88;34.00;;;13.20;99.90;;;;;;7335316;19;112080;-85
2022/04/14 07:30:15;;;;;;;47.65;31.48;;;13.30;99.90;;;;;;7341051;19;111895;-86
2022/04/14 07:32:43;;;;;;;50.05;31.95;;;13.50;99.90;;;;;;7336458;19;111772;-85
2022/04/14 07:35:12;;;;;;;43.53;31.00;;;13.60;99.90;;;;;;7334121;19;113078;-86
2022/04/14 07:37:39;;;;;;;49.95;30.27;;;13.80;99.90;;;;;;7335308;19;111093;-86
2022/04/14 07:40:10;;;;;;;46.55;31.50;;;13.90;99.90;;;;;;7337268;19;111845;-85
2022/04/14 07:42:39;;;;;;;42.60;28.50;;;14.10;99.90;;;;;;7333169;19;114372;-86
2022/04/14 07:45:09;;;;;;;40.17;27.48;;;14.30;99.90;;;;;;7336498;19;110805;-86
2022/04/14 07:47:41;;;;;;;38.63;27.08;;;14.40;99.90;;;;;;7331631;19;110951;-86
2022/04/14 07:50:10;;;;;;;41.17;26.67;;;14.40;99.90;;;;;;7334805;19;110751;-86
2022/04/14 07:52:56;;;;;;;40.92;24.55;;;14.50;99.90;;;;;;7340409;19;111126;-85
2022/04/14 07:55:30;;;;;;;31.53;23.00;;;14.60;99.90;;;;;;7331460;19;113643;-86
2022/04/14 07:58:01;;;;;;;32.47;20.60;;;14.70;99.90;;;;;;7330519;19;110427;-85
2022/04/14 08:00:29;;;;;;;33.55;19.63;;;14.80;99.90;;;;;;7333774;19;111479;-85
2022/04/14 08:02:58;;;;;;;30.63;18.23;;;14.90;99.90;;;;;;7333637;19;111605;-85
2022/04/14 08:05:36;;;;;;;23.13;17.08;;;15.10;99.90;;;;;;7335359;19;110658;-85
2022/04/14 08:08:04;;;;;;;25.00;16.10;;;15.20;99.90;;;;;;7333442;19;111085;-85
2022/04/14 08:10:32;;;;;;;25.75;15.27;;;15.30;99.90;;;;;;7335054;19;112129;-84
2022/04/14 08:12:59;;;;;;;28.58;16.48;;;15.40;99.90;;;;;;7332758;19;110327;-85
2022/04/14 08:15:29;;;;;;;24.80;15.32;;;15.40;99.90;;;;;;7337774;19;111062;-86
2022/04/14 08:17:57;;;;;;;23.30;15.00;;;15.50;99.90;;;;;;7332536;19;110200;-85
2022/04/14 08:20:25;;;;;;;22.10;13.57;;;15.60;99.90;;;;;;7334096;19;111129;-85
2022/04/14 08:22:57;;;;;;;19.15;12.40;;;15.80;99.90;;;;;;7331378;19;113831;-85
2022/04/14 08:25:30;;;;;;;22.33;12.52;;;15.80;99.90;;;;;;7331846;19;111533;-85
2022/04/14 08:27:59;;;;;;;15.98;12.55;;;15.90;99.90;;;;;;7331021;19;111535;-85
2022/04/14 08:30:28;;;;;;;18.17;12.65;;;16.00;99.90;;;;;;7329611;19;114845;-85
2022/04/14 08:32:57;;;;;;;20.20;12.40;;;16.10;99.90;;;;;;7331206;19;110870;-86
2022/04/14 08:35:26;;;;;;;18.23;12.75;;;16.30;99.90;;;;;;7331661;19;111110;-85
2022/04/14 08:37:53;;;;;;;22.63;14.05;;;16.30;99.90;;;;;;7335568;19;112138;-85
2022/04/14 08:40:22;;;;;;;17.67;11.95;;;16.30;99.90;;;;;;7330054;19;111422;-86
2022/04/14 08:42:57;;;;;;;19.20;13.25;;;16.40;99.90;;;;;;7329384;19;110613;-85
2022/04/14 08:45:27;;;;;;;17.77;11.98;;;16.60;99.90;;;;;;7332300;19;110488;-85
2022/04/14 08:47:56;;;;;;;18.10;11.45;;;16.70;99.90;;;;;;7329863;19;114588;-85
2022/04/14 08:50:24;;;;;;;14.18;9.90;;;16.90;99.90;;;;;;7332173;19;111682;-84
2022/04/14 08:52:51;;;;;;;12.45;8.70;;;17.00;99.90;;;;;;7334557;19;107926;-85
2022/04/14 08:55:18;;;;;;;10.05;7.75;;;17.10;99.90;;;;;;7332758;19;110565;-86
2022/04/14 08:57:46;;;;;;;9.57;6.88;;;17.20;99.90;;;;;;7334464;19;108246;-85
2022/04/14 09:00:18;;;;;;;10.73;7.82;;;17.30;99.90;;;;;;7338042;19;110080;-85
2022/04/14 09:02:50;;;;;;;10.82;7.80;;;17.40;99.90;;;;;;7331265;19;109662;-85
2022/04/14 09:05:18;;;;;;;9.30;7.15;;;17.50;99.90;;;;;;7334790;19;110164;-85
2022/04/14 09:07:50;;;;;;;10.70;6.80;;;17.60;99.90;;;;;;7331448;19;108101;-85
2022/04/14 09:10:21;;;;;;;11.55;7.75;;;17.60;99.90;;;;;;7328986;19;109902;-87
2022/04/14 09:12:49;;;;;;;10.18;8.63;;;17.70;99.90;;;;;;7332259;19;110185;-86
2022/04/14 09:15:17;;;;;;;14.35;8.75;;;17.70;99.90;;;;;;7331584;19;110842;-86
2022/04/14 09:17:45;;;;;;;13.35;7.93;;;17.80;99.90;;;;;;7332005;19;108247;-87
2022/04/14 09:20:33;;;;;;;15.90;8.20;;;17.90;99.90;;;;;;7340269;19;108841;-86
2022/04/14 09:23:09;;;;;;;;;;;18.00;99.90;;;;;;7339250;19;110238;-86
2022/04/14 09:25:36;;;;;;;11.18;8.60;;;18.10;99.90;;;;;;7344675;19;111250;-86
2022/04/14 09:28:14;;;;;;;10.85;7.32;;;18.10;99.90;;;;;;7341174;19;107213;-85
2022/04/14 09:31:06;;;;;;;11.75;7.75;;;18.20;99.90;;;;;;7339858;19;110668;-86
2022/04/14 09:33:35;;;;;;;10.07;7.05;;;18.20;99.90;;;;;;7339445;19;108245;-85
2022/04/14 09:36:16;;;;;;;9.18;7.47;;;18.30;99.90;;;;;;7341615;19;109529;-86
2022/04/14 09:39:05;;;;;;;12.05;6.53;;;18.40;99.90;;;;;;7341499;19;110524;-85
2022/04/14 09:41:39;;;;;;;9.57;5.95;;;18.50;99.90;;;;;;7339247;19;108402;-86
2022/04/14 09:44:11;;;;;;;10.82;7.68;;;18.50;99.90;;;;;;7341898;19;111241;-85
2022/04/14 09:46:46;;;;;;;11.68;6.88;;;18.60;99.90;;;;;;7339194;19;109057;-84
2022/04/14 09:49:19;;;;;;;11.77;7.35;;;18.60;99.90;;;;;;7337486;19;108537;-86
2022/04/14 09:51:48;;;;;;;10.35;6.43;;;18.80;99.90;;;;;;7340890;19;108410;-86
2022/04/14 09:54:18;;;;;;;11.38;6.05;;;18.80;99.90;;;;;;7339218;19;108987;-86
2022/04/14 09:56:54;;;;;;;7.97;5.45;;;19.00;99.90;;;;;;7337887;19;107924;-86
2022/04/14 09:59:29;;;;;;;7.85;5.28;;;19.00;99.90;;;;;;7339144;19;108734;-85
2022/04/14 10:02:16;;;;;;;8.70;5.15;;;19.10;99.90;;;;;;7336614;19;109340;-86
2022/04/14 10:04:45;;;;;;;12.38;4.85;;;19.20;99.90;;;;;;7341372;19;108662;-86
2022/04/14 10:07:15;;;;;;;11.73;5.45;;;19.30;99.90;;;;;;7345693;19;107473;-87
2022/04/14 10:09:44;;;;;;;8.73;5.13;;;19.40;99.90;;;;;;7337325;19;109582;-87
2022/04/14 10:12:18;;;;;;;9.27;5.18;;;19.40;99.90;;;;;;7336917;19;108553;-86
2022/04/14 10:14:58;;;;;;;10.05;5.20;;;19.50;99.90;;;;;;7340034;19;108039;-85
2022/04/14 10:17:27;;;;;;;10.05;5.97;;;19.60;99.90;;;;;;7336738;19;108301;-85
2022/04/14 10:19:54;;;;;;;8.38;5.50;;;19.70;99.90;;;;;;7340158;19;108104;-86
2022/04/14 10:22:22;;;;;;;9.52;5.75;;;19.80;99.90;;;;;;7339991;19;108301;-86
2022/04/14 10:24:54;;;;;;;12.77;6.05;;;19.90;99.90;;;;;;7339342;19;107162;-86
2022/04/14 10:27:22;;;;;;;11.25;6.80;;;20.10;99.90;;;;;;7339202;19;109147;-87
2022/04/14 10:29:50;;;;;;;14.13;6.63;;;20.00;99.90;;;;;;7342832;19;108829;-86
2022/04/14 10:32:17;;;;;;;11.18;7.10;;;20.00;99.90;;;;;;7336942;19;108266;-85
2022/04/14 10:34:46;;;;;;;10.10;7.40;;;19.80;99.90;;;;;;7342630;19;108859;-85
2022/04/14 10:37:30;;;;;;;11.82;7.20;;;19.80;99.90;;;;;;7341088;19;107250;-86
2022/04/14 10:40:00;;;;;;;13.35;7.65;;;19.70;99.90;;;;;;7341619;19;109494;-87
2022/04/14 10:42:29;;;;;;;11.13;7.88;;;19.70;99.90;;;;;;7341880;19;108307;-85
2022/04/14 10:44:56;;;;;;;9.73;6.72;;;19.70;99.90;;;;;;7342214;19;109206;-86
2022/04/14 10:47:34;;;;;;;14.35;7.75;;;19.80;99.90;;;;;;7338811;19;108393;-85
2022/04/14 10:50:03;;;;;;;12.10;8.18;;;19.80;99.90;;;;;;7340846;19;109969;-87
2022/04/14 10:52:36;;;;;;;13.38;8.63;;;19.90;99.90;;;;;;7348268;19;108564;-87
2022/04/14 10:55:04;;;;;;;14.50;8.10;;;19.80;99.90;;;;;;7338970;19;112246;-85
2022/04/14 10:57:39;;;;;;;15.05;8.95;;;19.80;99.90;;;;;;7333939;19;108470;-87
2022/04/14 11:00:32;;;;;;;15.73;8.75;;;19.90;99.90;;;;;;7339301;19;108226;-89
2022/04/14 11:03:11;;;;;;;13.32;8.70;;;20.00;99.90;;;;;;7341422;19;109154;-91
2022/04/14 11:05:39;;;;;;;12.30;9.18;;;20.00;99.90;;;;;;7343631;19;107136;-91
2022/04/14 11:08:24;;;;;;;14.45;8.90;;;20.10;99.90;;;;;;7340627;19;108032;-92
2022/04/14 11:11:11;;;;;;;13.60;8.60;;;20.20;99.90;;;;;;7341698;19;110087;-93
2022/04/14 11:13:54;;;;;;;14.97;9.97;;;20.40;99.90;;;;;;7343037;19;107744;-90
2022/04/14 11:16:40;;;;;;;17.48;10.55;;;20.50;99.90;;;;;;7344481;19;112266;-90
2022/04/14 11:19:24;;;;;;;17.48;9.85;;;20.50;99.90;;;;;;7338187;19;113848;-90
2022/04/14 11:22:08;;;;;;;17.30;9.55;;;20.70;99.90;;;;;;7341382;19;108451;-90
2022/04/14 11:24:40;;;;;;;14.02;8.77;;;20.90;99.90;;;;;;7338630;19;110968;-91
2022/04/14 11:27:19;;;;;;;14.27;9.00;;;21.00;99.90;;;;;;7343229;19;107925;-94
2022/04/14 11:29:48;;;;;;;13.00;7.60;;;21.00;98.80;;;;;;7340501;19;110257;-91
2022/04/14 11:32:33;;;;;;;12.07;6.97;;;20.90;98.50;;;;;;7340313;19;109577;-92
2022/04/14 11:35:30;;;;;;;9.95;5.15;;;20.90;98.10;;;;;;7336108;19;109393;-90
2022/04/14 11:37:58;;;;;;;9.52;5.45;;;20.90;98.00;;;;;;7346434;19;108209;-92
2022/04/14 11:40:27;;;;;;;15.45;8.65;;;20.90;97.40;;;;;;7339900;19;111284;-91
2022/04/14 11:42:58;;;;;;;14.55;9.50;;;20.80;97.60;;;;;;7341789;19;110873;-91
2022/04/14 11:45:28;;;;;;;17.85;10.40;;;20.70;97.90;;;;;;7340265;19;112124;-93
2022/04/14 11:48:03;;;;;;;15.25;10.13;;;20.60;98.50;;;;;;7338562;19;111476;-91
2022/04/14 11:50:34;;;;;;;16.73;10.43;;;20.60;98.40;;;;;;7337569;19;111739;-92
2022/04/14 11:53:03;;;;;;;15.30;10.15;;;20.60;98.50;;;;;;7336396;19;110725;-91
2022/04/14 11:55:36;;;;;;;18.35;10.35;;;20.50;98.20;;;;;;7336759;19;111864;-90
2022/04/14 11:58:15;;;;;;;17.83;11.10;;;20.50;98.70;;;;;;7333138;19;114442;-90
2022/04/14 12:00:50;;;;;;;17.23;11.13;;;20.50;98.70;;;;;;7340153;19;111412;-92
2022/04/14 12:03:31;;;;;;;17.67;10.63;;;20.50;98.90;;;;;;7335714;19;113367;-90
2022/04/14 12:06:03;;;;;;;16.10;10.65;;;20.50;97.80;;;;;;7335590;19;111791;-90
2022/04/14 12:08:31;;;;;;;14.38;11.90;;;20.50;98.70;;;;;;7335067;19;111458;-92
2022/04/14 12:11:16;;;;;;;17.67;11.68;;;20.60;98.20;;;;;;7336788;19;113078;-91
2022/04/14 12:13:43;;;;;;;19.95;12.65;;;20.70;98.20;;;;;;7335870;19;109971;-90
2022/04/14 12:16:11;;;;;;;23.10;13.07;;;20.60;98.20;;;;;;7338112;19;110701;-92
2022/04/14 12:18:41;;;;;;;17.17;12.45;;;20.70;98.40;;;;;;7333048;19;113764;-90
2022/04/14 12:21:18;;;;;;;15.30;11.70;;;20.70;98.30;;;;;;7335776;19;110427;-92
2022/04/14 12:23:47;;;;;;;16.65;12.65;;;20.90;98.00;;;;;;7339853;19;113327;-91
2022/04/14 12:26:16;;;;;;;17.15;11.80;;;21.00;98.50;;;;;;7334430;19;111332;-91
2022/04/14 12:28:45;;;;;;;17.08;10.55;;;21.20;98.00;;;;;;7336689;19;111510;-93
2022/04/14 12:31:13;;;;;;;12.80;8.35;;;21.40;97.90;;;;;;7335547;19;114428;-91
2022/04/14 12:33:40;;;;;;;8.05;5.90;;;21.50;96.70;;;;;;7339876;19;109247;-93
2022/04/14 12:36:09;;;;;;;11.88;6.30;;;21.50;96.50;;;;;;7339892;19;110434;-93